createdAt,value
2023-03-20T00:01:05.000Z,0
2023-03-20T00:02:22.000Z,0
2023-03-20T00:03:38.000Z,0
2023-03-20T00:04:54.000Z,0
2023-03-20T00:06:09.000Z,0
2023-03-20T00:07:25.000Z,0
2023-03-20T00:08:42.000Z,0
2023-03-20T00:09:58.000Z,0
2023-03-20T00:11:14.000Z,0
2023-03-20T00:12:30.000Z,0
2023-03-20T00:13:46.000Z,0
2023-03-20T00:15:03.000Z,0
2023-03-20T00:16:19.000Z,0
2023-03-20T00:17:35.437Z,0
2023-03-20T00:18:51.000Z,0
2023-03-20T00:20:07.000Z,0
2023-03-20T00:21:24.000Z,0
2023-03-20T00:22:39.000Z,0
2023-03-20T00:23:55.000Z,0
2023-03-20T00:25:11.000Z,0
2023-03-20T00:26:27.000Z,0
2023-03-20T00:27:44.000Z,0
2023-03-20T00:29:00.000Z,0
2023-03-20T00:30:15.000Z,0
2023-03-20T00:31:31.000Z,0
2023-03-20T00:32:47.000Z,0
2023-03-20T00:34:04.000Z,0
2023-03-20T00:35:20.000Z,0
2023-03-20T00:36:36.000Z,0
2023-03-20T00:37:52.000Z,0
2023-03-20T00:39:08.000Z,0
2023-03-20T00:40:25.000Z,0
2023-03-20T00:41:41.000Z,0
2023-03-20T00:42:57.000Z,0
2023-03-20T00:44:13.000Z,0
2023-03-20T00:45:29.000Z,0
2023-03-20T00:46:44.000Z,0
2023-03-20T00:48:01.000Z,0
2023-03-20T00:49:17.000Z,0
2023-03-20T00:50:33.000Z,0
2023-03-20T00:51:49.000Z,0
2023-03-20T00:53:05.000Z,0
2023-03-20T00:54:22.000Z,0
2023-03-20T00:55:38.000Z,0
2023-03-20T00:56:54.000Z,0
2023-03-20T00:58:10.000Z,0
2023-03-20T00:59:26.000Z,0
2023-03-20T01:00:43.000Z,0
2023-03-20T01:01:59.000Z,0
2023-03-20T01:03:14.000Z,0
2023-03-20T01:04:30.000Z,0
2023-03-20T01:05:46.000Z,0
2023-03-20T01:07:03.000Z,0
2023-03-20T01:08:19.000Z,0
2023-03-20T01:09:35.000Z,0
2023-03-20T01:10:51.000Z,0
2023-03-20T01:12:07.000Z,0
2023-03-20T01:13:24.000Z,0
2023-03-20T01:14:40.000Z,0
2023-03-20T01:15:56.397Z,0
2023-03-20T01:17:12.000Z,0
2023-03-20T01:18:28.000Z,0
2023-03-20T01:19:44.000Z,0
2023-03-20T01:21:00.000Z,0
2023-03-20T01:22:16.000Z,0
2023-03-20T01:23:32.000Z,0
2023-03-20T01:24:48.000Z,0
2023-03-20T01:26:05.000Z,0
2023-03-20T01:27:21.000Z,0
2023-03-20T01:28:37.352Z,0
2023-03-20T01:29:53.000Z,0
2023-03-20T01:31:09.000Z,0
2023-03-20T01:32:25.000Z,0
2023-03-20T01:33:42.000Z,0
2023-03-20T01:34:58.000Z,0
2023-03-20T01:36:13.000Z,0
2023-03-20T01:37:29.000Z,0
2023-03-20T01:38:45.000Z,0
2023-03-20T01:40:02.000Z,0
2023-03-20T01:41:18.000Z,0
2023-03-20T01:42:34.000Z,0
2023-03-20T01:43:50.000Z,0
2023-03-20T01:45:06.000Z,0
2023-03-20T01:46:23.000Z,0
2023-03-20T01:47:39.000Z,0
2023-03-20T01:48:55.000Z,0
2023-03-20T01:50:11.000Z,0
2023-03-20T01:51:27.000Z,0
2023-03-20T01:52:43.000Z,0
2023-03-20T01:53:59.251Z,0
2023-03-20T01:55:15.000Z,0
2023-03-20T01:56:31.000Z,0
2023-03-20T01:57:47.000Z,0
2023-03-20T01:59:04.000Z,0
2023-03-20T02:00:20.000Z,0
2023-03-20T02:01:36.000Z,0
2023-03-20T02:02:52.000Z,0
2023-03-20T02:04:08.000Z,0
2023-03-20T02:05:25.000Z,0
2023-03-20T02:06:41.201Z,0
2023-03-20T02:07:57.000Z,0
2023-03-20T02:09:12.000Z,0
2023-03-20T02:10:28.000Z,0
2023-03-20T02:11:45.000Z,0
2023-03-20T02:13:01.000Z,0
2023-03-20T02:14:17.000Z,0
2023-03-20T02:15:33.000Z,0
2023-03-20T02:16:49.000Z,0
2023-03-20T02:18:06.000Z,0
2023-03-20T02:19:22.000Z,0
2023-03-20T02:20:38.000Z,0
2023-03-20T02:21:54.000Z,0
2023-03-20T02:23:10.000Z,0
2023-03-20T02:24:27.000Z,0
2023-03-20T02:25:42.000Z,0
2023-03-20T02:26:58.000Z,0
2023-03-20T02:28:14.000Z,0
2023-03-20T02:29:30.000Z,0
2023-03-20T02:30:46.000Z,0
2023-03-20T02:32:03.135Z,0
2023-03-20T02:33:19.000Z,0
2023-03-20T02:34:35.000Z,0
2023-03-20T02:35:51.000Z,0
2023-03-20T02:37:07.000Z,0
2023-03-20T02:38:24.000Z,0
2023-03-20T02:39:40.000Z,0
2023-03-20T02:40:56.000Z,0
2023-03-20T02:42:11.000Z,0
2023-03-20T02:43:27.000Z,0
2023-03-20T02:44:44.000Z,0
2023-03-20T02:46:00.000Z,0
2023-03-20T02:47:16.000Z,0
2023-03-20T02:48:32.000Z,0
2023-03-20T02:49:48.000Z,0
2023-03-20T02:51:05.000Z,0
2023-03-20T02:52:21.000Z,0
2023-03-20T02:53:37.000Z,0
2023-03-20T02:54:53.000Z,0
2023-03-20T02:56:09.858Z,0
2023-03-20T02:57:26.050Z,0
2023-03-20T02:58:41.000Z,0
2023-03-20T02:59:57.000Z,0
2023-03-20T03:01:13.000Z,0
2023-03-20T03:02:29.000Z,0
2023-03-20T03:03:46.000Z,0
2023-03-20T03:05:02.000Z,0
2023-03-20T03:06:18.000Z,0
2023-03-20T03:07:34.000Z,0
2023-03-20T03:08:50.000Z,0
2023-03-20T03:10:07.014Z,0
2023-03-20T03:11:23.000Z,0
2023-03-20T03:12:39.000Z,0
2023-03-20T03:13:55.000Z,0
2023-03-20T03:15:10.000Z,0
2023-03-20T03:16:27.000Z,0
2023-03-20T03:17:43.000Z,0
2023-03-20T03:18:59.000Z,0
2023-03-20T03:20:15.000Z,0
2023-03-20T03:21:31.000Z,0
2023-03-20T03:22:48.000Z,0
2023-03-20T03:24:04.000Z,0
2023-03-20T03:25:20.000Z,0
2023-03-20T03:26:36.000Z,0
2023-03-20T03:27:52.000Z,0
2023-03-20T03:29:09.000Z,0
2023-03-20T03:30:25.000Z,0
2023-03-20T03:31:40.000Z,0
2023-03-20T03:32:56.000Z,0
2023-03-20T03:34:12.000Z,0
2023-03-20T03:35:28.955Z,0
2023-03-20T03:36:45.000Z,0
2023-03-20T03:38:01.000Z,0
2023-03-20T03:39:17.000Z,0
2023-03-20T03:40:33.000Z,0
2023-03-20T03:41:50.000Z,0
2023-03-20T03:43:06.000Z,0
2023-03-20T03:44:22.000Z,0
2023-03-20T03:45:38.000Z,0
2023-03-20T03:46:54.000Z,0
2023-03-20T03:48:09.920Z,0
2023-03-20T03:49:26.000Z,0
2023-03-20T03:50:42.000Z,0
2023-03-20T03:51:58.000Z,0
2023-03-20T03:53:14.000Z,0
2023-03-20T03:54:30.000Z,0
2023-03-20T03:55:47.000Z,0
2023-03-20T03:57:03.000Z,0
2023-03-20T03:58:19.000Z,0
2023-03-20T03:59:35.000Z,0
2023-03-20T04:00:51.000Z,0
2023-03-20T04:02:08.000Z,0
2023-03-20T04:03:24.000Z,0
2023-03-20T04:04:39.000Z,0
2023-03-20T04:05:55.000Z,0
2023-03-20T04:07:11.000Z,0
2023-03-20T04:08:28.000Z,0
2023-03-20T04:09:44.000Z,0
2023-03-20T04:11:00.000Z,0
2023-03-20T04:12:16.000Z,0
2023-03-20T04:13:32.000Z,0
2023-03-20T04:14:49.000Z,0
2023-03-20T04:16:05.000Z,0
2023-03-20T04:17:21.000Z,0
2023-03-20T04:18:37.000Z,0
2023-03-20T04:19:53.000Z,0
2023-03-20T04:21:09.000Z,0
2023-03-20T04:22:25.000Z,0
2023-03-20T04:23:41.000Z,0
2023-03-20T04:24:57.000Z,0
2023-03-20T04:26:13.000Z,0
2023-03-20T04:27:30.000Z,0
2023-03-20T04:28:46.000Z,0
2023-03-20T04:30:02.000Z,0
2023-03-20T04:31:18.000Z,0
2023-03-20T04:32:34.000Z,0
2023-03-20T04:33:51.000Z,0
2023-03-20T04:35:07.000Z,0
2023-03-20T04:36:23.000Z,0
2023-03-20T04:37:38.000Z,0
2023-03-20T04:38:54.782Z,0
2023-03-20T04:40:11.000Z,0
2023-03-20T04:41:27.000Z,0
2023-03-20T04:42:43.000Z,0
2023-03-20T04:43:59.000Z,0
2023-03-20T04:45:14.000Z,0
2023-03-20T04:46:31.000Z,0
2023-03-20T04:47:47.000Z,0
2023-03-20T04:49:03.000Z,0
2023-03-20T04:50:19.000Z,0
2023-03-20T04:51:35.000Z,0
2023-03-20T04:52:52.000Z,0
2023-03-20T04:54:08.000Z,0
2023-03-20T04:55:24.000Z,0
2023-03-20T04:56:40.000Z,0
2023-03-20T04:57:56.000Z,0
2023-03-20T04:59:13.000Z,0
2023-03-20T05:00:29.000Z,0
2023-03-20T05:01:44.000Z,0
2023-03-20T05:03:00.000Z,0
2023-03-20T05:04:16.722Z,0
2023-03-20T05:05:32.000Z,0
2023-03-20T05:06:49.000Z,0
2023-03-20T05:08:05.000Z,0
2023-03-20T05:09:21.000Z,0
2023-03-20T05:10:37.000Z,0
2023-03-20T05:11:53.000Z,0
2023-03-20T05:13:10.000Z,4
2023-03-20T05:14:26.000Z,0
2023-03-20T05:15:42.000Z,4
2023-03-20T05:16:58.000Z,4
2023-03-20T05:18:13.000Z,4
2023-03-20T05:19:30.000Z,8
2023-03-20T05:20:46.000Z,4
2023-03-20T05:22:02.000Z,8
2023-03-20T05:23:18.000Z,8
2023-03-20T05:24:34.000Z,12
2023-03-20T05:25:51.000Z,16
2023-03-20T05:27:07.000Z,16
2023-03-20T05:28:23.000Z,20
2023-03-20T05:29:39.649Z,24
2023-03-20T05:30:55.000Z,24
2023-03-20T05:32:12.000Z,24
2023-03-20T05:33:28.000Z,20
2023-03-20T05:34:43.000Z,24
2023-03-20T05:35:59.000Z,24
2023-03-20T05:37:15.911Z,24
2023-03-20T05:38:32.000Z,28
2023-03-20T05:39:48.000Z,36
2023-03-20T05:41:04.000Z,40
2023-03-20T05:42:20.000Z,44
2023-03-20T05:43:36.000Z,56
2023-03-20T05:44:53.000Z,64
2023-03-20T05:46:09.211Z,76
2023-03-20T05:47:25.000Z,84
2023-03-20T05:48:41.000Z,88
2023-03-20T05:49:57.000Z,96
2023-03-20T05:51:13.000Z,104
2023-03-20T05:52:29.000Z,120
2023-03-20T05:53:45.000Z,132
2023-03-20T05:55:01.000Z,152
2023-03-20T05:56:17.000Z,164
2023-03-20T05:57:34.000Z,172
2023-03-20T05:58:50.000Z,192
2023-03-20T06:00:06.000Z,216
2023-03-20T06:01:22.000Z,228
2023-03-20T06:02:38.000Z,252
2023-03-20T06:03:55.000Z,276
2023-03-20T06:05:11.000Z,292
2023-03-20T06:06:27.000Z,304
2023-03-20T06:07:42.549Z,324
2023-03-20T06:08:58.000Z,356
2023-03-20T06:10:15.000Z,376
2023-03-20T06:11:31.000Z,404
2023-03-20T06:12:47.000Z,432
2023-03-20T06:14:03.000Z,444
2023-03-20T06:15:19.000Z,452
2023-03-20T06:16:35.000Z,480
2023-03-20T06:17:52.000Z,516
2023-03-20T06:19:08.000Z,552
2023-03-20T06:20:24.000Z,588
2023-03-20T06:21:40.000Z,616
2023-03-20T06:22:56.000Z,612
2023-03-20T06:24:12.113Z,604
2023-03-20T06:25:28.000Z,608
2023-03-20T06:26:44.000Z,624
2023-03-20T06:28:00.000Z,636
2023-03-20T06:29:16.000Z,652
2023-03-20T06:30:33.000Z,672
2023-03-20T06:31:49.000Z,692
2023-03-20T06:33:05.481Z,708
2023-03-20T06:34:21.000Z,712
2023-03-20T06:35:37.000Z,712
2023-03-20T06:36:54.065Z,708
2023-03-20T06:38:10.000Z,680
2023-03-20T06:39:26.000Z,628
2023-03-20T06:40:41.000Z,644
2023-03-20T06:41:57.000Z,628
2023-03-20T06:43:14.000Z,616
2023-03-20T06:44:30.000Z,640
2023-03-20T06:45:46.441Z,728
2023-03-20T06:47:02.000Z,760
2023-03-20T06:48:18.000Z,792
2023-03-20T06:49:35.000Z,812
2023-03-20T06:50:51.000Z,852
2023-03-20T06:52:07.000Z,904
2023-03-20T06:53:23.000Z,932
2023-03-20T06:54:39.000Z,1008
2023-03-20T06:55:56.000Z,1080
2023-03-20T06:57:11.000Z,1160
2023-03-20T06:58:27.000Z,1180
2023-03-20T06:59:43.000Z,1216
2023-03-20T07:00:59.000Z,1272
2023-03-20T07:02:16.000Z,1352
2023-03-20T07:03:32.000Z,1424
2023-03-20T07:04:48.000Z,1504
2023-03-20T07:06:04.000Z,1596
2023-03-20T07:07:20.000Z,1684
2023-03-20T07:08:37.000Z,1764
2023-03-20T07:09:53.000Z,1808
2023-03-20T07:11:09.376Z,1920
2023-03-20T07:12:25.000Z,1976
2023-03-20T07:13:40.789Z,2256
2023-03-20T07:14:57.000Z,2588
2023-03-20T07:16:13.000Z,3052
2023-03-20T07:17:29.000Z,3448
2023-03-20T07:18:45.000Z,3760
2023-03-20T07:20:01.000Z,4040
2023-03-20T07:21:18.000Z,4116
2023-03-20T07:22:34.000Z,4028
2023-03-20T07:23:50.000Z,3796
2023-03-20T07:25:06.000Z,3724
2023-03-20T07:26:22.000Z,3568
2023-03-20T07:27:39.000Z,3412
2023-03-20T07:28:55.000Z,3324
2023-03-20T07:30:10.000Z,3252
2023-03-20T07:31:26.000Z,3152
2023-03-20T07:32:42.000Z,3060
2023-03-20T07:33:59.000Z,2968
2023-03-20T07:35:15.000Z,2896
2023-03-20T07:36:31.311Z,2852
2023-03-20T07:37:47.000Z,2824
2023-03-20T07:39:03.000Z,2828
2023-03-20T07:40:19.000Z,2800
2023-03-20T07:41:36.000Z,2788
2023-03-20T07:42:52.286Z,2828
2023-03-20T07:44:08.000Z,2772
2023-03-20T07:45:24.000Z,2772
2023-03-20T07:46:39.000Z,2788
2023-03-20T07:47:56.000Z,2852
2023-03-20T07:49:12.000Z,2860
2023-03-20T07:50:28.000Z,2900
2023-03-20T07:51:44.000Z,2908
2023-03-20T07:53:00.000Z,2936
2023-03-20T07:54:17.000Z,2936
2023-03-20T07:55:33.000Z,3028
2023-03-20T07:56:49.000Z,3128
2023-03-20T07:58:05.000Z,3284
2023-03-20T07:59:21.000Z,3552
2023-03-20T08:00:38.000Z,3740
2023-03-20T08:01:54.252Z,3872
2023-03-20T08:03:09.000Z,3976
2023-03-20T08:04:25.000Z,4084
2023-03-20T08:05:41.000Z,4224
2023-03-20T08:06:58.000Z,4192
2023-03-20T08:08:14.000Z,4156
2023-03-20T08:09:30.000Z,4204
2023-03-20T08:10:46.000Z,4288
2023-03-20T08:12:02.000Z,4376
2023-03-20T08:13:19.000Z,4548
2023-03-20T08:14:35.000Z,4600
2023-03-20T08:15:51.000Z,4756
2023-03-20T08:17:07.000Z,5068
2023-03-20T08:18:23.000Z,5232
2023-03-20T08:19:39.000Z,5964
2023-03-20T08:20:55.000Z,6644
2023-03-20T08:22:11.000Z,7976
2023-03-20T08:23:27.000Z,8240
2023-03-20T08:24:43.000Z,8464
2023-03-20T08:26:00.000Z,7044
2023-03-20T08:27:16.182Z,4932
2023-03-20T08:28:32.000Z,5272
2023-03-20T08:29:48.000Z,7384
2023-03-20T08:31:04.000Z,8444
2023-03-20T08:32:21.000Z,8644
2023-03-20T08:33:37.000Z,9360
2023-03-20T08:34:53.000Z,9376
2023-03-20T08:36:08.571Z,8876
2023-03-20T08:37:24.000Z,9224
2023-03-20T08:38:41.000Z,10868
2023-03-20T08:39:57.000Z,12408
2023-03-20T08:41:13.000Z,13192
2023-03-20T08:42:29.000Z,13704
2023-03-20T08:43:45.000Z,15676
2023-03-20T08:45:02.000Z,18400
2023-03-20T08:46:18.000Z,22304
2023-03-20T08:47:34.000Z,24512
2023-03-20T08:48:50.000Z,23360
2023-03-20T08:50:06.000Z,13268
2023-03-20T08:51:22.000Z,18368
2023-03-20T08:52:38.120Z,17120
2023-03-20T08:53:54.000Z,14420
2023-03-20T08:55:10.000Z,9968
2023-03-20T08:56:26.000Z,12716
2023-03-20T08:57:42.000Z,11456
2023-03-20T08:58:59.000Z,10028
2023-03-20T09:00:14.000Z,10032
2023-03-20T09:01:30.000Z,10240
2023-03-20T09:02:46.000Z,9256
2023-03-20T09:04:02.000Z,9972
2023-03-20T09:05:19.000Z,10284
2023-03-20T09:06:35.000Z,9972
2023-03-20T09:07:51.000Z,11256
2023-03-20T09:09:07.000Z,11332
2023-03-20T09:10:23.000Z,12712
2023-03-20T09:11:40.000Z,12432
2023-03-20T09:12:56.000Z,13484
2023-03-20T09:14:12.000Z,14900
2023-03-20T09:15:28.000Z,16300
2023-03-20T09:16:43.000Z,13052
2023-03-20T09:18:00.000Z,20576
2023-03-20T09:19:16.000Z,10948
2023-03-20T09:20:32.000Z,24544
2023-03-20T09:21:48.000Z,17344
2023-03-20T09:23:04.000Z,10456
2023-03-20T09:24:21.000Z,13824
2023-03-20T09:25:37.000Z,11748
2023-03-20T09:26:53.000Z,10780
2023-03-20T09:28:09.000Z,9168
2023-03-20T09:29:25.000Z,9128
2023-03-20T09:30:42.025Z,7884
2023-03-20T09:31:58.000Z,8296
2023-03-20T09:33:13.000Z,8572
2023-03-20T09:34:29.000Z,7932
2023-03-20T09:35:45.000Z,6780
2023-03-20T09:37:02.000Z,6620
2023-03-20T09:38:18.000Z,6812
2023-03-20T09:39:34.000Z,6948
2023-03-20T09:40:50.000Z,6712
2023-03-20T09:42:06.000Z,6316
2023-03-20T09:43:23.000Z,6524
2023-03-20T09:44:39.000Z,6424
2023-03-20T09:45:55.000Z,6236
2023-03-20T09:47:11.596Z,6088
2023-03-20T09:48:27.000Z,5912
2023-03-20T09:49:43.000Z,5540
2023-03-20T09:50:59.000Z,4932
2023-03-20T09:52:15.000Z,5208
2023-03-20T09:53:31.000Z,5516
2023-03-20T09:54:47.000Z,4892
2023-03-20T09:56:04.000Z,4532
2023-03-20T09:57:20.000Z,4504
2023-03-20T09:58:36.000Z,5156
2023-03-20T09:59:52.000Z,6088
2023-03-20T10:01:08.000Z,6460
2023-03-20T10:02:25.000Z,6808
2023-03-20T10:03:41.000Z,6664
2023-03-20T10:04:57.000Z,6892
2023-03-20T10:06:12.000Z,7080
2023-03-20T10:07:28.760Z,7556
2023-03-20T10:08:45.000Z,7544
2023-03-20T10:10:01.000Z,7088
2023-03-20T10:11:17.000Z,7096
2023-03-20T10:12:33.000Z,6964
2023-03-20T10:13:49.000Z,6640
2023-03-20T10:15:05.914Z,6296
2023-03-20T10:16:22.000Z,6432
2023-03-20T10:17:38.000Z,6308
2023-03-20T10:18:54.000Z,6352
2023-03-20T10:20:10.000Z,6304
2023-03-20T10:21:26.000Z,6636
2023-03-20T10:22:42.000Z,6668
2023-03-20T10:23:58.000Z,6280
2023-03-20T10:25:14.000Z,6116
2023-03-20T10:26:30.000Z,6176
2023-03-20T10:27:46.000Z,6104
2023-03-20T10:29:03.000Z,5692
2023-03-20T10:30:19.000Z,5892
2023-03-20T10:31:35.485Z,6244
2023-03-20T10:32:51.000Z,6496
2023-03-20T10:34:07.870Z,7100
2023-03-20T10:35:24.000Z,7052
2023-03-20T10:36:40.000Z,7260
2023-03-20T10:37:56.000Z,7636
2023-03-20T10:39:11.000Z,8328
2023-03-20T10:40:27.000Z,8736
2023-03-20T10:41:44.000Z,9068
2023-03-20T10:43:00.000Z,9136
2023-03-20T10:44:16.000Z,9556
2023-03-20T10:45:32.000Z,10176
2023-03-20T10:46:48.000Z,10252
2023-03-20T10:48:05.000Z,10752
2023-03-20T10:49:21.000Z,10784
2023-03-20T10:50:37.000Z,10512
2023-03-20T10:51:53.000Z,10216
2023-03-20T10:53:09.000Z,9900
2023-03-20T10:54:26.000Z,9572
2023-03-20T10:55:41.000Z,9012
2023-03-20T10:56:57.000Z,8524
2023-03-20T10:58:13.000Z,8132
2023-03-20T10:59:29.000Z,8056
2023-03-20T11:00:46.000Z,7952
2023-03-20T11:02:02.000Z,7940
2023-03-20T11:03:18.000Z,7956
2023-03-20T11:04:34.000Z,8028
2023-03-20T11:05:50.000Z,8004
2023-03-20T11:07:07.000Z,8020
2023-03-20T11:08:23.000Z,7684
2023-03-20T11:09:39.000Z,7756
2023-03-20T11:10:55.000Z,8112
2023-03-20T11:12:10.792Z,8348
2023-03-20T11:13:27.000Z,8464
2023-03-20T11:14:43.000Z,8556
2023-03-20T11:15:59.000Z,8524
2023-03-20T11:17:15.000Z,8204
2023-03-20T11:18:31.000Z,7980
2023-03-20T11:19:48.000Z,7916
2023-03-20T11:21:04.000Z,7744
2023-03-20T11:22:20.000Z,7720
2023-03-20T11:23:36.000Z,7652
2023-03-20T11:24:52.745Z,7520
2023-03-20T11:26:08.937Z,7408
2023-03-20T11:27:25.000Z,7296
2023-03-20T11:28:40.000Z,7184
2023-03-20T11:29:56.000Z,7228
2023-03-20T11:31:12.000Z,7204
2023-03-20T11:32:29.000Z,7144
2023-03-20T11:33:45.000Z,7100
2023-03-20T11:35:01.312Z,7068
2023-03-20T11:36:17.000Z,7020
2023-03-20T11:37:33.699Z,6724
2023-03-20T11:38:49.000Z,6924
2023-03-20T11:40:06.000Z,6956
2023-03-20T11:41:22.000Z,6736
2023-03-20T11:42:38.000Z,7024
2023-03-20T11:43:54.668Z,7160
2023-03-20T11:45:09.000Z,7220
2023-03-20T11:46:26.000Z,7244
2023-03-20T11:47:42.000Z,7172
2023-03-20T11:48:58.000Z,6932
2023-03-20T11:50:14.000Z,6984
2023-03-20T11:51:30.000Z,7188
2023-03-20T11:52:47.000Z,7168
2023-03-20T11:54:03.000Z,6904
2023-03-20T11:55:19.000Z,6632
2023-03-20T11:56:35.000Z,6200
2023-03-20T11:57:51.000Z,5508
2023-03-20T11:59:08.000Z,5248
2023-03-20T12:00:24.000Z,5216
2023-03-20T12:01:39.000Z,5172
2023-03-20T12:02:55.608Z,4992
2023-03-20T12:04:11.000Z,4692
2023-03-20T12:05:28.000Z,4476
2023-03-20T12:06:44.000Z,4528
2023-03-20T12:08:00.000Z,4476
2023-03-20T12:09:16.000Z,4604
2023-03-20T12:10:32.000Z,4920
2023-03-20T12:11:49.000Z,5204
2023-03-20T12:13:05.000Z,5340
2023-03-20T12:14:21.000Z,5420
2023-03-20T12:15:37.000Z,5396
2023-03-20T12:16:53.000Z,5440
2023-03-20T12:18:09.000Z,5508
2023-03-20T12:19:25.000Z,5868
2023-03-20T12:20:41.000Z,6152
2023-03-20T12:21:57.000Z,6156
2023-03-20T12:23:13.000Z,6028
2023-03-20T12:24:29.000Z,5888
2023-03-20T12:25:46.000Z,6124
2023-03-20T12:27:02.000Z,6088
2023-03-20T12:28:18.477Z,5812
2023-03-20T12:29:34.000Z,5712
2023-03-20T12:30:50.877Z,5780
2023-03-20T12:32:07.000Z,5884
2023-03-20T12:33:23.000Z,5700
2023-03-20T12:34:38.000Z,5700
2023-03-20T12:35:54.000Z,5424
2023-03-20T12:37:10.000Z,4920
2023-03-20T12:38:27.000Z,4524
2023-03-20T12:39:43.000Z,4316
2023-03-20T12:40:59.000Z,4188
2023-03-20T12:42:15.000Z,3948
2023-03-20T12:43:31.000Z,3772
2023-03-20T12:44:48.000Z,3580
2023-03-20T12:46:04.000Z,3440
2023-03-20T12:47:20.000Z,3352
2023-03-20T12:48:36.000Z,3392
2023-03-20T12:49:52.000Z,3484
2023-03-20T12:51:08.000Z,3468
2023-03-20T12:52:24.192Z,3436
2023-03-20T12:53:40.000Z,3532
2023-03-20T12:54:56.000Z,3540
2023-03-20T12:56:12.000Z,3308
2023-03-20T12:57:29.000Z,3216
2023-03-20T12:58:45.000Z,3040
2023-03-20T13:00:01.000Z,2960
2023-03-20T13:01:17.000Z,3040
2023-03-20T13:02:33.000Z,3168
2023-03-20T13:03:50.000Z,3312
2023-03-20T13:05:06.000Z,3500
2023-03-20T13:06:22.000Z,3636
2023-03-20T13:07:37.000Z,3556
2023-03-20T13:08:53.000Z,3348
2023-03-20T13:10:10.000Z,3220
2023-03-20T13:11:26.000Z,3160
2023-03-20T13:12:42.000Z,3344
2023-03-20T13:13:58.000Z,3716
2023-03-20T13:15:13.000Z,4076
2023-03-20T13:16:29.000Z,4292
2023-03-20T13:17:46.000Z,4524
2023-03-20T13:19:02.000Z,4752
2023-03-20T13:20:18.000Z,4892
2023-03-20T13:21:34.000Z,5056
2023-03-20T13:22:50.000Z,5108
2023-03-20T13:24:07.000Z,5080
2023-03-20T13:25:23.000Z,4932
2023-03-20T13:26:39.000Z,4860
2023-03-20T13:27:55.000Z,4808
2023-03-20T13:29:11.000Z,4664
2023-03-20T13:30:28.000Z,4444
2023-03-20T13:31:43.000Z,4272
2023-03-20T13:32:59.000Z,4116
2023-03-20T13:34:15.000Z,3924
2023-03-20T13:35:31.000Z,3704
2023-03-20T13:36:48.000Z,3544
2023-03-20T13:38:04.000Z,3504
2023-03-20T13:39:20.000Z,3540
2023-03-20T13:40:36.000Z,3632
2023-03-20T13:41:52.000Z,3628
2023-03-20T13:43:09.000Z,3628
2023-03-20T13:44:25.000Z,3720
2023-03-20T13:45:41.000Z,3736
2023-03-20T13:46:57.000Z,3712
2023-03-20T13:48:12.000Z,3652
2023-03-20T13:49:29.000Z,3620
2023-03-20T13:50:45.000Z,3584
2023-03-20T13:52:01.000Z,3560
2023-03-20T13:53:17.000Z,3708
2023-03-20T13:54:33.000Z,3896
2023-03-20T13:55:50.000Z,4108
2023-03-20T13:57:06.183Z,4284
2023-03-20T13:58:22.000Z,4388
2023-03-20T13:59:38.000Z,4268
2023-03-20T14:00:54.000Z,3836
2023-03-20T14:02:10.000Z,3796
2023-03-20T14:03:27.161Z,3752
2023-03-20T14:04:42.000Z,3588
2023-03-20T14:05:58.000Z,3616
2023-03-20T14:07:14.000Z,3424
2023-03-20T14:08:30.000Z,3184
2023-03-20T14:09:47.132Z,3180
2023-03-20T14:11:03.000Z,3212
2023-03-20T14:12:19.000Z,3336
2023-03-20T14:13:35.000Z,3452
2023-03-20T14:14:51.000Z,3596
2023-03-20T14:16:08.000Z,3712
2023-03-20T14:17:24.000Z,3776
2023-03-20T14:18:40.000Z,3820
2023-03-20T14:19:56.000Z,3832
2023-03-20T14:21:11.000Z,3848
2023-03-20T14:22:28.000Z,3868
2023-03-20T14:23:44.000Z,3868
2023-03-20T14:25:00.000Z,3852
2023-03-20T14:26:16.000Z,3884
2023-03-20T14:27:32.000Z,3992
2023-03-20T14:28:49.000Z,4096
2023-03-20T14:30:05.000Z,4264
2023-03-20T14:31:21.000Z,4472
2023-03-20T14:32:37.000Z,4624
2023-03-20T14:33:53.000Z,4712
2023-03-20T14:35:10.009Z,4696
2023-03-20T14:36:26.000Z,4664
2023-03-20T14:37:41.000Z,4728
2023-03-20T14:38:57.000Z,4700
2023-03-20T14:40:13.000Z,4612
2023-03-20T14:41:30.000Z,4500
2023-03-20T14:42:46.000Z,4476
2023-03-20T14:44:02.387Z,4536
2023-03-20T14:45:18.000Z,4524
2023-03-20T14:46:34.000Z,4436
2023-03-20T14:47:50.980Z,4332
2023-03-20T14:49:07.000Z,4248
2023-03-20T14:50:23.000Z,4172
2023-03-20T14:51:39.000Z,4048
2023-03-20T14:52:55.000Z,3892
2023-03-20T14:54:10.000Z,3772
2023-03-20T14:55:27.000Z,3608
2023-03-20T14:56:43.000Z,3388
2023-03-20T14:57:59.540Z,3228
2023-03-20T14:59:15.000Z,3116
2023-03-20T15:00:31.000Z,2908
2023-03-20T15:01:48.000Z,2740
2023-03-20T15:03:04.000Z,2596
2023-03-20T15:04:20.000Z,2468
2023-03-20T15:05:36.000Z,2400
2023-03-20T15:06:52.000Z,2312
2023-03-20T15:08:09.000Z,2224
2023-03-20T15:09:25.000Z,2164
2023-03-20T15:10:40.000Z,2160
2023-03-20T15:11:56.000Z,2112
2023-03-20T15:13:12.866Z,2064
2023-03-20T15:14:29.000Z,2024
2023-03-20T15:15:45.000Z,1956
2023-03-20T15:17:01.000Z,1908
2023-03-20T15:18:17.000Z,1876
2023-03-20T15:19:33.000Z,1868
2023-03-20T15:20:50.000Z,1896
2023-03-20T15:22:06.000Z,1904
2023-03-20T15:23:22.000Z,1936
2023-03-20T15:24:38.000Z,1956
2023-03-20T15:25:54.000Z,1992
2023-03-20T15:27:10.000Z,2008
2023-03-20T15:28:26.000Z,2040
2023-03-20T15:29:42.000Z,2076
2023-03-20T15:30:58.000Z,2124
2023-03-20T15:32:14.000Z,2148
2023-03-20T15:33:31.000Z,2184
2023-03-20T15:34:47.000Z,2188
2023-03-20T15:36:03.000Z,2132
2023-03-20T15:37:19.602Z,2096
2023-03-20T15:38:35.000Z,2080
2023-03-20T15:39:51.000Z,2060
2023-03-20T15:41:08.000Z,2036
2023-03-20T15:42:24.000Z,2016
2023-03-20T15:43:39.000Z,1996
2023-03-20T15:44:55.000Z,1980
2023-03-20T15:46:11.000Z,1960
2023-03-20T15:47:28.000Z,1976
2023-03-20T15:48:44.000Z,1912
2023-03-20T15:50:00.510Z,1796
2023-03-20T15:51:16.702Z,1732
2023-03-20T15:52:32.000Z,1624
2023-03-20T15:53:49.000Z,1520
2023-03-20T15:55:05.000Z,1432
2023-03-20T15:56:21.000Z,1332
2023-03-20T15:57:37.681Z,1240
2023-03-20T15:58:53.000Z,1180
2023-03-20T16:00:09.074Z,1140
2023-03-20T16:01:25.000Z,1108
2023-03-20T16:02:41.000Z,1084
2023-03-20T16:03:57.000Z,1044
2023-03-20T16:05:13.000Z,1012
2023-03-20T16:06:30.000Z,992
2023-03-20T16:07:46.000Z,980
2023-03-20T16:09:02.000Z,964
2023-03-20T16:10:18.000Z,952
2023-03-20T16:11:34.000Z,920
2023-03-20T16:12:51.000Z,876
2023-03-20T16:14:07.000Z,860
2023-03-20T16:15:23.389Z,824
2023-03-20T16:16:38.593Z,804
2023-03-20T16:17:54.000Z,788
2023-03-20T16:19:11.000Z,784
2023-03-20T16:20:27.000Z,756
2023-03-20T16:21:43.000Z,700
2023-03-20T16:22:59.000Z,676
2023-03-20T16:24:15.000Z,676
2023-03-20T16:25:31.000Z,676
2023-03-20T16:26:48.000Z,660
2023-03-20T16:28:04.000Z,648
2023-03-20T16:29:20.000Z,648
2023-03-20T16:30:36.000Z,648
2023-03-20T16:31:52.000Z,648
2023-03-20T16:33:08.000Z,644
2023-03-20T16:34:24.000Z,612
2023-03-20T16:35:40.000Z,572
2023-03-20T16:36:56.000Z,544
2023-03-20T16:38:12.000Z,532
2023-03-20T16:39:29.000Z,524
2023-03-20T16:40:45.000Z,508
2023-03-20T16:42:01.000Z,496
2023-03-20T16:43:17.000Z,500
2023-03-20T16:44:33.000Z,508
2023-03-20T16:45:50.000Z,488
2023-03-20T16:47:06.000Z,472
2023-03-20T16:48:22.000Z,460
2023-03-20T16:49:37.000Z,440
2023-03-20T16:50:53.000Z,432
2023-03-20T16:52:10.000Z,420
2023-03-20T16:53:26.000Z,408
2023-03-20T16:54:42.442Z,408
2023-03-20T16:55:58.000Z,392
2023-03-20T16:57:14.000Z,376
2023-03-20T16:58:31.000Z,368
2023-03-20T16:59:47.000Z,348
2023-03-20T17:01:03.000Z,328
2023-03-20T17:02:19.000Z,316
2023-03-20T17:03:35.000Z,304
2023-03-20T17:04:52.000Z,296
2023-03-20T17:06:07.000Z,288
2023-03-20T17:07:23.000Z,276
2023-03-20T17:08:39.000Z,264
2023-03-20T17:11:12.000Z,260
2023-03-20T17:12:28.000Z,252
2023-03-20T17:13:44.000Z,252
2023-03-20T17:15:00.000Z,260
2023-03-20T17:16:16.000Z,264
2023-03-20T17:17:32.000Z,260
2023-03-20T17:18:49.000Z,248
2023-03-20T17:20:05.317Z,232
2023-03-20T17:21:21.000Z,220
2023-03-20T17:22:36.000Z,216
2023-03-20T17:23:52.000Z,208
2023-03-20T17:25:09.000Z,196
2023-03-20T17:26:25.000Z,188
2023-03-20T17:27:41.000Z,180
2023-03-20T17:28:57.000Z,176
2023-03-20T17:30:12.000Z,160
2023-03-20T17:31:29.000Z,144